sensor_id;sensor_type;location;lat;lon;timestamp;P1;durP1;ratioP1;P2;durP2;ratioP2
37543;SDS011;23385;52.038;20.322;2022-08-11T00:00:06;8.43;;;5.57;;
37543;SDS011;23385;52.038;20.322;2022-08-11T00:02:40;8.20;;;5.20;;
37543;SDS011;23385;52.038;20.322;2022-08-11T00:05:10;8.33;;;5.23;;
37543;SDS011;23385;52.038;20.322;2022-08-11T00:07:44;10.70;;;5.60;;
37543;SDS011;23385;52.038;20.322;2022-08-11T00:10:16;12.10;;;5.93;;
37543;SDS011;23385;52.038;20.322;2022-08-11T00:13:19;9.00;;;5.67;;
37543;SDS011;23385;52.038;20.322;2022-08-11T00:15:42;6.50;;;4.90;;
37543;SDS011;23385;52.038;20.322;2022-08-11T00:18:09;8.43;;;5.70;;
37543;SDS011;23385;52.038;20.322;2022-08-11T00:20:37;8.67;;;5.90;;
37543;SDS011;23385;52.038;20.322;2022-08-11T00:23:16;9.70;;;5.97;;
37543;SDS011;23385;52.038;20.322;2022-08-11T00:25:44;7.87;;;5.93;;
37543;SDS011;23385;52.038;20.322;2022-08-11T00:30:51;9.50;;;5.50;;
37543;SDS011;23385;52.038;20.322;2022-08-11T00:33:22;10.33;;;6.00;;
37543;SDS011;23385;52.038;20.322;2022-08-11T00:35:56;9.97;;;5.83;;
37543;SDS011;23385;52.038;20.322;2022-08-11T00:38:25;17.93;;;5.90;;
37543;SDS011;23385;52.038;20.322;2022-08-11T00:46:25;7.47;;;5.70;;
37543;SDS011;23385;52.038;20.322;2022-08-11T00:51:59;7.93;;;5.33;;
37543;SDS011;23385;52.038;20.322;2022-08-11T01:00:13;8.20;;;5.67;;
37543;SDS011;23385;52.038;20.322;2022-08-11T01:08:27;10.97;;;5.77;;
37543;SDS011;23385;52.038;20.322;2022-08-11T01:25:36;10.13;;;6.17;;
37543;SDS011;23385;52.038;20.322;2022-08-11T01:43:24;9.63;;;6.23;;
37543;SDS011;23385;52.038;20.322;2022-08-11T01:46:38;8.87;;;6.33;;
37543;SDS011;23385;52.038;20.322;2022-08-11T01:52:22;10.30;;;5.83;;
37543;SDS011;23385;52.038;20.322;2022-08-11T01:58:01;8.53;;;5.37;;
37543;SDS011;23385;52.038;20.322;2022-08-11T02:04:15;8.17;;;5.63;;
37543;SDS011;23385;52.038;20.322;2022-08-11T04:58:39;12.07;;;6.90;;
37543;SDS011;23385;52.038;20.322;2022-08-11T05:01:54;11.47;;;6.17;;
37543;SDS011;23385;52.038;20.322;2022-08-11T05:13:25;10.90;;;7.00;;
37543;SDS011;23385;52.038;20.322;2022-08-11T05:16:13;8.90;;;6.80;;
37543;SDS011;23385;52.038;20.322;2022-08-11T05:19:02;9.90;;;6.50;;
37543;SDS011;23385;52.038;20.322;2022-08-11T05:21:52;11.30;;;7.10;;
37543;SDS011;23385;52.038;20.322;2022-08-11T05:24:42;11.00;;;6.57;;
37543;SDS011;23385;52.038;20.322;2022-08-11T05:27:38;11.57;;;6.73;;
37543;SDS011;23385;52.038;20.322;2022-08-11T05:30:42;14.37;;;7.00;;
37543;SDS011;23385;52.038;20.322;2022-08-11T05:33:37;13.93;;;6.27;;
37543;SDS011;23385;52.038;20.322;2022-08-11T05:36:46;12.03;;;6.10;;
37543;SDS011;23385;52.038;20.322;2022-08-11T05:39:23;15.87;;;6.47;;
37543;SDS011;23385;52.038;20.322;2022-08-11T05:42:38;16.30;;;7.30;;
37543;SDS011;23385;52.038;20.322;2022-08-11T05:45:33;14.53;;;5.90;;
37543;SDS011;23385;52.038;20.322;2022-08-11T05:48:17;16.07;;;7.00;;
37543;SDS011;23385;52.038;20.322;2022-08-11T05:57:47;13.77;;;6.93;;
37543;SDS011;23385;52.038;20.322;2022-08-11T06:03:37;16.37;;;7.13;;
37543;SDS011;23385;52.038;20.322;2022-08-11T06:06:38;15.05;;;7.20;;
37543;SDS011;23385;52.038;20.322;2022-08-11T06:09:12;16.27;;;7.20;;
37543;SDS011;23385;52.038;20.322;2022-08-11T06:11:53;15.05;;;6.75;;
37543;SDS011;23385;52.038;20.322;2022-08-11T06:14:22;17.75;;;6.13;;
37543;SDS011;23385;52.038;20.322;2022-08-11T06:16:49;14.18;;;5.50;;
37543;SDS011;23385;52.038;20.322;2022-08-11T06:19:23;15.50;;;6.35;;
37543;SDS011;23385;52.038;20.322;2022-08-11T06:22:34;13.27;;;6.30;;
37543;SDS011;23385;52.038;20.322;2022-08-11T06:25:00;13.43;;;5.85;;
37543;SDS011;23385;52.038;20.322;2022-08-11T06:27:29;12.95;;;5.90;;
37543;SDS011;23385;52.038;20.322;2022-08-11T06:29:57;12.65;;;5.20;;
37543;SDS011;23385;52.038;20.322;2022-08-11T06:32:26;12.35;;;5.30;;
37543;SDS011;23385;52.038;20.322;2022-08-11T06:38:16;11.30;;;4.47;;
37543;SDS011;23385;52.038;20.322;2022-08-11T06:46:47;12.60;;;4.47;;
37543;SDS011;23385;52.038;20.322;2022-08-11T06:49:16;10.05;;;4.00;;
37543;SDS011;23385;52.038;20.322;2022-08-11T06:52:07;8.65;;;3.60;;
37543;SDS011;23385;52.038;20.322;2022-08-11T06:55:06;11.85;;;4.00;;
37543;SDS011;23385;52.038;20.322;2022-08-11T06:57:39;8.45;;;3.50;;
37543;SDS011;23385;52.038;20.322;2022-08-11T07:00:29;9.13;;;3.58;;
37543;SDS011;23385;52.038;20.322;2022-08-11T07:05:41;8.52;;;3.25;;
37543;SDS011;23385;52.038;20.322;2022-08-11T07:11:54;6.88;;;2.60;;
37543;SDS011;23385;52.038;20.322;2022-08-11T07:14:44;8.60;;;2.70;;
37543;SDS011;23385;52.038;20.322;2022-08-11T07:17:37;5.35;;;2.70;;
37543;SDS011;23385;52.038;20.322;2022-08-11T07:20:40;5.75;;;2.63;;
37543;SDS011;23385;52.038;20.322;2022-08-11T07:23:25;8.20;;;2.88;;
37543;SDS011;23385;52.038;20.322;2022-08-11T07:26:14;4.57;;;2.40;;
37543;SDS011;23385;52.038;20.322;2022-08-11T07:29:02;6.03;;;2.60;;
37543;SDS011;23385;52.038;20.322;2022-08-11T07:31:40;6.70;;;2.30;;
37543;SDS011;23385;52.038;20.322;2022-08-11T07:34:22;5.45;;;2.47;;
37543;SDS011;23385;52.038;20.322;2022-08-11T07:37:03;5.03;;;2.00;;
37543;SDS011;23385;52.038;20.322;2022-08-11T07:39:34;7.65;;;2.47;;
37543;SDS011;23385;52.038;20.322;2022-08-11T07:42:08;5.55;;;2.53;;
37543;SDS011;23385;52.038;20.322;2022-08-11T07:44:36;4.32;;;2.03;;
37543;SDS011;23385;52.038;20.322;2022-08-11T07:47:25;6.28;;;2.00;;
37543;SDS011;23385;52.038;20.322;2022-08-11T07:50:10;5.05;;;1.90;;
37543;SDS011;23385;52.038;20.322;2022-08-11T07:52:56;6.45;;;1.85;;
37543;SDS011;23385;52.038;20.322;2022-08-11T07:55:23;4.97;;;2.25;;
37543;SDS011;23385;52.038;20.322;2022-08-11T07:57:52;5.72;;;2.15;;
37543;SDS011;23385;52.038;20.322;2022-08-11T08:00:54;4.40;;;1.98;;
37543;SDS011;23385;52.038;20.322;2022-08-11T08:03:41;8.55;;;2.15;;
37543;SDS011;23385;52.038;20.322;2022-08-11T08:06:26;7.82;;;2.13;;
37543;SDS011;23385;52.038;20.322;2022-08-11T08:09:12;6.53;;;1.73;;
37543;SDS011;23385;52.038;20.322;2022-08-11T08:11:59;3.67;;;1.67;;
37543;SDS011;23385;52.038;20.322;2022-08-11T08:14:45;4.40;;;1.60;;
37543;SDS011;23385;52.038;20.322;2022-08-11T08:17:30;5.22;;;1.75;;
37543;SDS011;23385;52.038;20.322;2022-08-11T08:20:17;8.77;;;2.08;;
37543;SDS011;23385;52.038;20.322;2022-08-11T08:22:50;7.18;;;1.70;;
37543;SDS011;23385;52.038;20.322;2022-08-11T08:25:25;4.05;;;1.63;;
37543;SDS011;23385;52.038;20.322;2022-08-11T08:27:53;3.35;;;1.48;;
37543;SDS011;23385;52.038;20.322;2022-08-11T08:30:21;3.35;;;1.60;;
37543;SDS011;23385;52.038;20.322;2022-08-11T08:33:07;2.58;;;0.90;;
37543;SDS011;23385;52.038;20.322;2022-08-11T08:35:35;2.83;;;1.23;;
37543;SDS011;23385;52.038;20.322;2022-08-11T08:38:05;6.78;;;1.10;;
37543;SDS011;23385;52.038;20.322;2022-08-11T08:40:30;5.95;;;1.63;;
37543;SDS011;23385;52.038;20.322;2022-08-11T08:43:07;4.30;;;1.40;;
37543;SDS011;23385;52.038;20.322;2022-08-11T08:45:37;2.60;;;1.10;;
37543;SDS011;23385;52.038;20.322;2022-08-11T08:48:05;5.88;;;1.38;;
37543;SDS011;23385;52.038;20.322;2022-08-11T08:50:36;4.78;;;1.38;;
37543;SDS011;23385;52.038;20.322;2022-08-11T08:53:27;4.63;;;1.48;;
37543;SDS011;23385;52.038;20.322;2022-08-11T08:55:57;4.35;;;1.20;;
37543;SDS011;23385;52.038;20.322;2022-08-11T08:58:25;4.60;;;1.20;;
37543;SDS011;23385;52.038;20.322;2022-08-11T09:00:52;4.45;;;1.48;;
37543;SDS011;23385;52.038;20.322;2022-08-11T09:03:20;3.85;;;1.17;;
37543;SDS011;23385;52.038;20.322;2022-08-11T09:05:47;3.28;;;1.33;;
37543;SDS011;23385;52.038;20.322;2022-08-11T09:08:13;3.72;;;1.27;;
37543;SDS011;23385;52.038;20.322;2022-08-11T09:10:44;4.88;;;1.20;;
37543;SDS011;23385;52.038;20.322;2022-08-11T09:13:12;2.28;;;1.10;;
37543;SDS011;23385;52.038;20.322;2022-08-11T09:15:39;3.10;;;1.30;;
37543;SDS011;23385;52.038;20.322;2022-08-11T09:18:05;4.10;;;1.20;;
37543;SDS011;23385;52.038;20.322;2022-08-11T09:20:36;2.80;;;0.90;;
37543;SDS011;23385;52.038;20.322;2022-08-11T09:23:04;3.97;;;1.20;;
37543;SDS011;23385;52.038;20.322;2022-08-11T09:25:58;7.13;;;1.05;;
37543;SDS011;23385;52.038;20.322;2022-08-11T09:28:44;2.83;;;1.08;;
37543;SDS011;23385;52.038;20.322;2022-08-11T09:31:12;3.38;;;0.95;;
37543;SDS011;23385;52.038;20.322;2022-08-11T09:33:39;1.77;;;1.05;;
37543;SDS011;23385;52.038;20.322;2022-08-11T09:36:06;3.83;;;1.00;;
37543;SDS011;23385;52.038;20.322;2022-08-11T09:38:52;2.10;;;0.93;;
37543;SDS011;23385;52.038;20.322;2022-08-11T09:41:37;1.73;;;0.88;;
37543;SDS011;23385;52.038;20.322;2022-08-11T09:44:05;4.57;;;0.90;;
37543;SDS011;23385;52.038;20.322;2022-08-11T09:46:51;1.30;;;0.98;;
37543;SDS011;23385;52.038;20.322;2022-08-11T09:49:19;2.15;;;1.02;;
37543;SDS011;23385;52.038;20.322;2022-08-11T09:51:46;1.23;;;0.90;;
37543;SDS011;23385;52.038;20.322;2022-08-11T09:54:14;4.63;;;1.05;;
37543;SDS011;23385;52.038;20.322;2022-08-11T09:56:41;2.40;;;1.00;;
37543;SDS011;23385;52.038;20.322;2022-08-11T09:59:25;2.50;;;1.10;;
37543;SDS011;23385;52.038;20.322;2022-08-11T10:01:53;2.03;;;1.10;;
37543;SDS011;23385;52.038;20.322;2022-08-11T10:04:34;2.97;;;1.00;;
37543;SDS011;23385;52.038;20.322;2022-08-11T10:07:07;1.88;;;0.95;;
37543;SDS011;23385;52.038;20.322;2022-08-11T10:12:27;3.85;;;1.00;;
37543;SDS011;23385;52.038;20.322;2022-08-11T10:15:03;2.38;;;0.93;;
37543;SDS011;23385;52.038;20.322;2022-08-11T10:17:52;3.45;;;0.80;;
37543;SDS011;23385;52.038;20.322;2022-08-11T10:20:40;2.92;;;1.05;;
37543;SDS011;23385;52.038;20.322;2022-08-11T10:23:09;4.30;;;0.88;;
37543;SDS011;23385;52.038;20.322;2022-08-11T10:25:56;6.93;;;1.00;;
37543;SDS011;23385;52.038;20.322;2022-08-11T10:28:41;4.22;;;0.93;;
37543;SDS011;23385;52.038;20.322;2022-08-11T10:31:07;3.45;;;1.00;;
37543;SDS011;23385;52.038;20.322;2022-08-11T10:33:52;0.80;;;0.73;;
37543;SDS011;23385;52.038;20.322;2022-08-11T10:36:36;2.67;;;0.90;;
37543;SDS011;23385;52.038;20.322;2022-08-11T10:39:09;6.70;;;1.17;;
37543;SDS011;23385;52.038;20.322;2022-08-11T10:41:42;3.05;;;0.85;;
37543;SDS011;23385;52.038;20.322;2022-08-11T10:44:31;1.10;;;0.80;;
37543;SDS011;23385;52.038;20.322;2022-08-11T10:47:02;3.67;;;0.90;;
37543;SDS011;23385;52.038;20.322;2022-08-11T10:49:49;1.65;;;0.90;;
37543;SDS011;23385;52.038;20.322;2022-08-11T10:52:36;2.05;;;0.95;;
37543;SDS011;23385;52.038;20.322;2022-08-11T10:55:22;0.93;;;0.80;;
37543;SDS011;23385;52.038;20.322;2022-08-11T10:58:08;1.80;;;0.60;;
37543;SDS011;23385;52.038;20.322;2022-08-11T11:00:53;6.75;;;1.05;;
37543;SDS011;23385;52.038;20.322;2022-08-11T11:03:21;0.80;;;0.80;;
37543;SDS011;23385;52.038;20.322;2022-08-11T11:05:51;1.00;;;0.80;;
37543;SDS011;23385;52.038;20.322;2022-08-11T11:08:20;2.45;;;0.93;;
37543;SDS011;23385;52.038;20.322;2022-08-11T11:11:11;3.28;;;1.10;;
37543;SDS011;23385;52.038;20.322;2022-08-11T11:13:40;3.10;;;0.88;;
37543;SDS011;23385;52.038;20.322;2022-08-11T11:16:30;3.13;;;0.93;;
37543;SDS011;23385;52.038;20.322;2022-08-11T11:19:13;4.13;;;1.00;;
37543;SDS011;23385;52.038;20.322;2022-08-11T11:21:43;3.05;;;1.08;;
37543;SDS011;23385;52.038;20.322;2022-08-11T11:24:16;1.65;;;1.10;;
37543;SDS011;23385;52.038;20.322;2022-08-11T11:35:34;1.48;;;0.65;;
37543;SDS011;23385;52.038;20.322;2022-08-11T11:38:19;1.10;;;0.88;;
37543;SDS011;23385;52.038;20.322;2022-08-11T11:40:46;1.25;;;0.80;;
37543;SDS011;23385;52.038;20.322;2022-08-11T11:43:34;4.13;;;0.95;;
37543;SDS011;23385;52.038;20.322;2022-08-11T11:46:00;2.47;;;0.85;;
37543;SDS011;23385;52.038;20.322;2022-08-11T11:48:27;1.98;;;0.80;;
37543;SDS011;23385;52.038;20.322;2022-08-11T11:50:54;5.32;;;0.70;;
37543;SDS011;23385;52.038;20.322;2022-08-11T11:53:20;3.97;;;0.90;;
37543;SDS011;23385;52.038;20.322;2022-08-11T11:55:47;3.83;;;0.80;;
37543;SDS011;23385;52.038;20.322;2022-08-11T11:58:13;1.83;;;0.75;;
37543;SDS011;23385;52.038;20.322;2022-08-11T12:00:57;5.68;;;1.23;;
37543;SDS011;23385;52.038;20.322;2022-08-11T12:03:45;1.27;;;0.98;;
37543;SDS011;23385;52.038;20.322;2022-08-11T12:06:12;3.35;;;0.85;;
37543;SDS011;23385;52.038;20.322;2022-08-11T12:08:39;4.82;;;1.00;;
37543;SDS011;23385;52.038;20.322;2022-08-11T12:11:09;1.55;;;0.77;;
37543;SDS011;23385;52.038;20.322;2022-08-11T12:13:55;2.30;;;0.70;;
37543;SDS011;23385;52.038;20.322;2022-08-11T12:16:24;2.80;;;0.90;;
37543;SDS011;23385;52.038;20.322;2022-08-11T12:19:00;3.17;;;0.63;;
37543;SDS011;23385;52.038;20.322;2022-08-11T12:21:28;3.00;;;0.75;;
37543;SDS011;23385;52.038;20.322;2022-08-11T12:23:59;0.80;;;0.60;;
37543;SDS011;23385;52.038;20.322;2022-08-11T12:26:44;3.35;;;0.70;;
37543;SDS011;23385;52.038;20.322;2022-08-11T12:29:30;2.70;;;0.88;;
37543;SDS011;23385;52.038;20.322;2022-08-11T12:31:56;2.45;;;0.80;;
37543;SDS011;23385;52.038;20.322;2022-08-11T12:34:25;2.50;;;0.70;;
37543;SDS011;23385;52.038;20.322;2022-08-11T12:39:23;2.42;;;1.08;;
37543;SDS011;23385;52.038;20.322;2022-08-11T12:42:20;3.45;;;0.98;;
37543;SDS011;23385;52.038;20.322;2022-08-11T12:45:09;1.20;;;0.70;;
37543;SDS011;23385;52.038;20.322;2022-08-11T12:47:52;2.17;;;0.70;;
37543;SDS011;23385;52.038;20.322;2022-08-11T12:50:57;1.58;;;0.80;;
37543;SDS011;23385;52.038;20.322;2022-08-11T12:53:50;3.90;;;0.93;;
37543;SDS011;23385;52.038;20.322;2022-08-11T12:56:31;2.17;;;0.85;;
37543;SDS011;23385;52.038;20.322;2022-08-11T12:59:31;5.28;;;0.85;;
37543;SDS011;23385;52.038;20.322;2022-08-11T13:02:25;1.33;;;0.90;;
37543;SDS011;23385;52.038;20.322;2022-08-11T13:05:11;3.13;;;0.98;;
37543;SDS011;23385;52.038;20.322;2022-08-11T13:07:39;2.33;;;1.00;;
37543;SDS011;23385;52.038;20.322;2022-08-11T13:10:08;4.65;;;0.88;;
37543;SDS011;23385;52.038;20.322;2022-08-11T13:12:35;1.92;;;0.90;;
37543;SDS011;23385;52.038;20.322;2022-08-11T13:15:19;4.10;;;0.80;;
37543;SDS011;23385;52.038;20.322;2022-08-11T13:17:52;2.78;;;0.80;;
37543;SDS011;23385;52.038;20.322;2022-08-11T13:20:20;4.38;;;0.88;;
37543;SDS011;23385;52.038;20.322;2022-08-11T13:22:48;0.93;;;0.70;;
37543;SDS011;23385;52.038;20.322;2022-08-11T13:25:17;5.63;;;1.00;;
37543;SDS011;23385;52.038;20.322;2022-08-11T13:27:46;1.55;;;1.02;;
37543;SDS011;23385;52.038;20.322;2022-08-11T13:30:13;3.22;;;0.80;;
37543;SDS011;23385;52.038;20.322;2022-08-11T13:32:59;4.05;;;1.02;;
37543;SDS011;23385;52.038;20.322;2022-08-11T13:35:26;0.82;;;0.70;;
37543;SDS011;23385;52.038;20.322;2022-08-11T13:37:53;2.80;;;0.80;;
37543;SDS011;23385;52.038;20.322;2022-08-11T13:40:20;3.03;;;0.90;;
37543;SDS011;23385;52.038;20.322;2022-08-11T13:42:47;3.63;;;1.50;;
37543;SDS011;23385;52.038;20.322;2022-08-11T13:45:15;2.00;;;0.70;;
37543;SDS011;23385;52.038;20.322;2022-08-11T13:47:56;3.83;;;0.70;;
37543;SDS011;23385;52.038;20.322;2022-08-11T13:50:23;5.43;;;1.13;;
37543;SDS011;23385;52.038;20.322;2022-08-11T13:53:09;2.95;;;0.80;;
37543;SDS011;23385;52.038;20.322;2022-08-11T13:55:37;7.68;;;1.10;;
37543;SDS011;23385;52.038;20.322;2022-08-11T13:58:04;3.15;;;0.90;;
37543;SDS011;23385;52.038;20.322;2022-08-11T14:00:34;1.90;;;0.90;;
37543;SDS011;23385;52.038;20.322;2022-08-11T14:03:00;5.07;;;1.00;;
37543;SDS011;23385;52.038;20.322;2022-08-11T14:05:30;1.92;;;0.90;;
37543;SDS011;23385;52.038;20.322;2022-08-11T14:08:09;0.60;;;0.60;;
37543;SDS011;23385;52.038;20.322;2022-08-11T14:10:40;4.20;;;0.88;;
37543;SDS011;23385;52.038;20.322;2022-08-11T14:13:08;1.35;;;0.80;;
37543;SDS011;23385;52.038;20.322;2022-08-11T14:15:57;2.90;;;0.90;;
37543;SDS011;23385;52.038;20.322;2022-08-11T14:18:35;4.90;;;2.10;;
37543;SDS011;23385;52.038;20.322;2022-08-11T14:21:08;2.70;;;1.55;;
37543;SDS011;23385;52.038;20.322;2022-08-11T14:23:57;3.03;;;1.20;;
37543;SDS011;23385;52.038;20.322;2022-08-11T14:26:24;2.55;;;1.20;;
37543;SDS011;23385;52.038;20.322;2022-08-11T14:28:52;2.08;;;0.95;;
37543;SDS011;23385;52.038;20.322;2022-08-11T14:31:26;4.20;;;1.10;;
37543;SDS011;23385;52.038;20.322;2022-08-11T14:33:54;3.13;;;1.13;;
37543;SDS011;23385;52.038;20.322;2022-08-11T14:36:23;3.45;;;1.10;;
37543;SDS011;23385;52.038;20.322;2022-08-11T14:38:51;3.13;;;0.80;;
37543;SDS011;23385;52.038;20.322;2022-08-11T14:41:18;4.47;;;0.95;;
37543;SDS011;23385;52.038;20.322;2022-08-11T14:44:03;4.00;;;1.42;;
37543;SDS011;23385;52.038;20.322;2022-08-11T14:46:48;3.75;;;2.05;;
37543;SDS011;23385;52.038;20.322;2022-08-11T14:49:30;2.45;;;1.15;;
37543;SDS011;23385;52.038;20.322;2022-08-11T14:52:06;1.75;;;0.82;;
37543;SDS011;23385;52.038;20.322;2022-08-11T14:54:34;4.95;;;1.10;;
37543;SDS011;23385;52.038;20.322;2022-08-11T14:57:23;1.88;;;1.40;;
37543;SDS011;23385;52.038;20.322;2022-08-11T14:59:56;1.58;;;1.15;;
37543;SDS011;23385;52.038;20.322;2022-08-11T15:02:26;4.28;;;1.30;;
37543;SDS011;23385;52.038;20.322;2022-08-11T15:05:11;4.63;;;1.30;;
37543;SDS011;23385;52.038;20.322;2022-08-11T15:07:38;4.30;;;1.58;;
37543;SDS011;23385;52.038;20.322;2022-08-11T15:10:05;4.63;;;1.35;;
37543;SDS011;23385;52.038;20.322;2022-08-11T15:12:34;7.47;;;1.60;;
37543;SDS011;23385;52.038;20.322;2022-08-11T15:15:02;12.38;;;1.92;;
37543;SDS011;23385;52.038;20.322;2022-08-11T15:17:50;6.35;;;1.98;;
37543;SDS011;23385;52.038;20.322;2022-08-11T15:20:18;3.75;;;1.65;;
37543;SDS011;23385;52.038;20.322;2022-08-11T15:23:04;4.65;;;2.08;;
37543;SDS011;23385;52.038;20.322;2022-08-11T15:25:50;5.97;;;2.13;;
37543;SDS011;23385;52.038;20.322;2022-08-11T15:28:23;4.25;;;2.05;;
37543;SDS011;23385;52.038;20.322;2022-08-11T15:31:10;4.25;;;1.35;;
37543;SDS011;23385;52.038;20.322;2022-08-11T15:34:06;3.58;;;1.02;;
37543;SDS011;23385;52.038;20.322;2022-08-11T15:36:54;3.85;;;1.25;;
37543;SDS011;23385;52.038;20.322;2022-08-11T15:42:59;83.05;;;52.08;;
37543;SDS011;23385;52.038;20.322;2022-08-11T15:45:52;67.25;;;41.13;;
37543;SDS011;23385;52.038;20.322;2022-08-11T15:48:33;50.83;;;29.75;;
37543;SDS011;23385;52.038;20.322;2022-08-11T15:51:09;37.78;;;22.65;;
37543;SDS011;23385;52.038;20.322;2022-08-11T15:53:51;32.15;;;22.63;;
37543;SDS011;23385;52.038;20.322;2022-08-11T15:56:19;10.98;;;8.55;;
37543;SDS011;23385;52.038;20.322;2022-08-11T15:58:50;3.25;;;2.35;;
37543;SDS011;23385;52.038;20.322;2022-08-11T16:01:36;4.65;;;3.20;;
37543;SDS011;23385;52.038;20.322;2022-08-11T16:04:25;5.75;;;3.17;;
37543;SDS011;23385;52.038;20.322;2022-08-11T16:07:00;8.32;;;3.35;;
37543;SDS011;23385;52.038;20.322;2022-08-11T16:09:36;6.18;;;2.50;;
37543;SDS011;23385;52.038;20.322;2022-08-11T16:12:10;5.47;;;2.00;;
37543;SDS011;23385;52.038;20.322;2022-08-11T16:14:45;3.40;;;1.60;;
37543;SDS011;23385;52.038;20.322;2022-08-11T16:17:54;4.38;;;1.67;;
37543;SDS011;23385;52.038;20.322;2022-08-11T16:20:22;5.53;;;2.10;;
37543;SDS011;23385;52.038;20.322;2022-08-11T16:22:51;1.95;;;1.20;;
37543;SDS011;23385;52.038;20.322;2022-08-11T16:25:24;4.75;;;1.40;;
37543;SDS011;23385;52.038;20.322;2022-08-11T16:27:52;2.33;;;1.75;;
37543;SDS011;23385;52.038;20.322;2022-08-11T16:30:23;2.55;;;1.13;;
37543;SDS011;23385;52.038;20.322;2022-08-11T16:32:52;8.30;;;2.00;;
37543;SDS011;23385;52.038;20.322;2022-08-11T16:35:19;5.55;;;3.10;;
37543;SDS011;23385;52.038;20.322;2022-08-11T16:38:06;4.18;;;2.78;;
37543;SDS011;23385;52.038;20.322;2022-08-11T16:40:53;5.07;;;1.98;;
37543;SDS011;23385;52.038;20.322;2022-08-11T16:43:24;3.17;;;1.30;;
37543;SDS011;23385;52.038;20.322;2022-08-11T16:46:11;4.10;;;1.30;;
37543;SDS011;23385;52.038;20.322;2022-08-11T16:48:42;4.05;;;1.38;;
37543;SDS011;23385;52.038;20.322;2022-08-11T16:51:12;3.35;;;1.85;;
37543;SDS011;23385;52.038;20.322;2022-08-11T16:53:39;3.58;;;1.65;;
37543;SDS011;23385;52.038;20.322;2022-08-11T16:56:08;4.00;;;1.55;;
37543;SDS011;23385;52.038;20.322;2022-08-11T16:58:41;2.15;;;1.60;;
37543;SDS011;23385;52.038;20.322;2022-08-11T17:01:28;5.57;;;3.72;;
37543;SDS011;23385;52.038;20.322;2022-08-11T17:03:58;8.48;;;5.57;;
37543;SDS011;23385;52.038;20.322;2022-08-11T17:06:49;8.10;;;5.70;;
37543;SDS011;23385;52.038;20.322;2022-08-11T17:09:36;7.90;;;3.67;;
37543;SDS011;23385;52.038;20.322;2022-08-11T17:12:23;5.07;;;2.78;;
37543;SDS011;23385;52.038;20.322;2022-08-11T17:15:16;2.35;;;1.98;;
37543;SDS011;23385;52.038;20.322;2022-08-11T17:18:02;2.67;;;1.92;;
37543;SDS011;23385;52.038;20.322;2022-08-11T17:20:34;2.92;;;2.03;;
37543;SDS011;23385;52.038;20.322;2022-08-11T17:23:07;2.85;;;2.00;;
37543;SDS011;23385;52.038;20.322;2022-08-11T17:25:51;3.45;;;1.95;;
37543;SDS011;23385;52.038;20.322;2022-08-11T17:28:18;2.50;;;1.63;;
37543;SDS011;23385;52.038;20.322;2022-08-11T17:30:45;2.80;;;1.77;;
37543;SDS011;23385;52.038;20.322;2022-08-11T17:33:31;4.78;;;1.70;;
37543;SDS011;23385;52.038;20.322;2022-08-11T17:36:16;1.83;;;1.73;;
37543;SDS011;23385;52.038;20.322;2022-08-11T17:38:46;3.55;;;1.50;;
37543;SDS011;23385;52.038;20.322;2022-08-11T17:41:29;2.40;;;1.83;;
37543;SDS011;23385;52.038;20.322;2022-08-11T17:44:17;6.38;;;1.88;;
37543;SDS011;23385;52.038;20.322;2022-08-11T17:47:06;5.15;;;2.00;;
37543;SDS011;23385;52.038;20.322;2022-08-11T17:49:50;8.63;;;2.90;;
37543;SDS011;23385;52.038;20.322;2022-08-11T17:52:17;6.93;;;2.78;;
37543;SDS011;23385;52.038;20.322;2022-08-11T17:55:03;5.68;;;2.50;;
37543;SDS011;23385;52.038;20.322;2022-08-11T17:57:48;9.70;;;2.40;;
37543;SDS011;23385;52.038;20.322;2022-08-11T18:00:33;4.57;;;2.60;;
37543;SDS011;23385;52.038;20.322;2022-08-11T18:02:59;5.47;;;2.22;;
37543;SDS011;23385;52.038;20.322;2022-08-11T18:05:45;5.07;;;2.70;;
37543;SDS011;23385;52.038;20.322;2022-08-11T18:08:15;4.15;;;2.50;;
37543;SDS011;23385;52.038;20.322;2022-08-11T18:11:09;6.57;;;4.00;;
37543;SDS011;23385;52.038;20.322;2022-08-11T18:13:56;5.93;;;2.97;;
37543;SDS011;23385;52.038;20.322;2022-08-11T18:16:55;9.55;;;3.25;;
37543;SDS011;23385;52.038;20.322;2022-08-11T18:19:40;7.80;;;3.50;;
37543;SDS011;23385;52.038;20.322;2022-08-11T18:22:35;6.70;;;3.40;;
37543;SDS011;23385;52.038;20.322;2022-08-11T18:25:34;5.13;;;2.90;;
37543;SDS011;23385;52.038;20.322;2022-08-11T18:28:26;3.47;;;2.95;;
37543;SDS011;23385;52.038;20.322;2022-08-11T18:34:29;5.57;;;3.13;;
37543;SDS011;23385;52.038;20.322;2022-08-11T18:37:20;9.88;;;3.55;;
37543;SDS011;23385;52.038;20.322;2022-08-11T18:40:10;11.63;;;5.45;;
37543;SDS011;23385;52.038;20.322;2022-08-11T18:43:04;5.70;;;4.68;;
37543;SDS011;23385;52.038;20.322;2022-08-11T18:45:59;7.45;;;4.50;;
37543;SDS011;23385;52.038;20.322;2022-08-11T18:49:05;5.80;;;4.10;;
37543;SDS011;23385;52.038;20.322;2022-08-11T18:51:59;7.30;;;4.03;;
37543;SDS011;23385;52.038;20.322;2022-08-11T18:54:50;4.47;;;3.30;;
37543;SDS011;23385;52.038;20.322;2022-08-11T18:57:41;6.32;;;3.60;;
37543;SDS011;23385;52.038;20.322;2022-08-11T19:00:30;6.55;;;3.63;;
37543;SDS011;23385;52.038;20.322;2022-08-11T19:03:19;7.22;;;3.50;;
37543;SDS011;23385;52.038;20.322;2022-08-11T19:06:19;6.38;;;3.85;;
37543;SDS011;23385;52.038;20.322;2022-08-11T19:09:11;5.80;;;3.33;;
37543;SDS011;23385;52.038;20.322;2022-08-11T19:12:10;14.32;;;6.05;;
37543;SDS011;23385;52.038;20.322;2022-08-11T19:15:06;9.87;;;5.07;;
37543;SDS011;23385;52.038;20.322;2022-08-11T19:18:04;7.43;;;5.37;;
37543;SDS011;23385;52.038;20.322;2022-08-11T19:20:55;10.97;;;5.17;;
37543;SDS011;23385;52.038;20.322;2022-08-11T19:23:44;8.80;;;5.63;;
37543;SDS011;23385;52.038;20.322;2022-08-11T19:26:37;9.97;;;5.77;;
37543;SDS011;23385;52.038;20.322;2022-08-11T19:29:22;9.23;;;6.03;;
37543;SDS011;23385;52.038;20.322;2022-08-11T19:32:08;10.30;;;7.03;;
37543;SDS011;23385;52.038;20.322;2022-08-11T19:34:55;11.33;;;7.93;;
37543;SDS011;23385;52.038;20.322;2022-08-11T19:37:42;11.17;;;8.03;;
37543;SDS011;23385;52.038;20.322;2022-08-11T19:40:27;14.40;;;10.57;;
37543;SDS011;23385;52.038;20.322;2022-08-11T19:43:13;16.50;;;10.30;;
37543;SDS011;23385;52.038;20.322;2022-08-11T19:45:59;14.37;;;9.57;;
37543;SDS011;23385;52.038;20.322;2022-08-11T19:48:49;15.73;;;9.30;;
37543;SDS011;23385;52.038;20.322;2022-08-11T19:51:43;12.47;;;9.00;;
37543;SDS011;23385;52.038;20.322;2022-08-11T19:54:32;22.93;;;12.63;;
37543;SDS011;23385;52.038;20.322;2022-08-11T19:57:18;19.13;;;11.37;;
37543;SDS011;23385;52.038;20.322;2022-08-11T20:00:09;23.93;;;12.53;;
37543;SDS011;23385;52.038;20.322;2022-08-11T20:03:09;28.10;;;15.00;;
37543;SDS011;23385;52.038;20.322;2022-08-11T20:06:07;39.00;;;18.87;;
37543;SDS011;23385;52.038;20.322;2022-08-11T20:08:59;33.77;;;17.70;;
37543;SDS011;23385;52.038;20.322;2022-08-11T20:11:51;37.30;;;17.67;;
37543;SDS011;23385;52.038;20.322;2022-08-11T20:14:39;37.07;;;16.93;;
37543;SDS011;23385;52.038;20.322;2022-08-11T20:17:27;24.53;;;14.10;;
37543;SDS011;23385;52.038;20.322;2022-08-11T20:20:15;28.50;;;15.87;;
37543;SDS011;23385;52.038;20.322;2022-08-11T20:23:01;32.57;;;15.53;;
37543;SDS011;23385;52.038;20.322;2022-08-11T20:25:47;33.67;;;15.50;;
37543;SDS011;23385;52.038;20.322;2022-08-11T20:28:33;29.53;;;12.27;;
37543;SDS011;23385;52.038;20.322;2022-08-11T20:31:20;20.27;;;11.07;;